Time;durP1;ratioP1;P1;durP2;ratioP2;P2;SDS_P1;SDS_P2;PMS_P1;PMS_P2;Temp;Humidity;BMP_temperature;BMP_pressure;BME280_temperature;BME280_humidity;BME280_pressure;Samples;Min_cycle;Max_cycle;Signal;HPM_P1;HPM_P2
2022/07/28 00:02:04;;;;;;;1.87;1.50;;;21.70;55.40;;;;;;7363120;19;20396;-51
2022/07/28 00:04:37;;;;;;;1.87;1.67;;;21.60;55.10;;;;;;7377329;19;20375;-51
2022/07/28 00:07:06;;;;;;;2.23;1.80;;;21.20;56.30;;;;;;7381490;19;20421;-51
2022/07/28 00:09:36;;;;;;;3.17;1.60;;;20.70;57.70;;;;;;7382155;19;20726;-51
2022/07/28 00:12:06;;;;;;;2.87;1.80;;;20.90;57.10;;;;;;7379609;19;20387;-51
2022/07/28 00:14:35;;;;;;;2.40;1.43;;;20.70;57.50;;;;;;7378381;19;20938;-51
2022/07/28 00:17:05;;;;;;;2.90;2.03;;;20.60;58.20;;;;;;7379419;19;20376;-51
2022/07/28 00:19:37;;;;;;;2.13;1.40;;;20.70;58.30;;;;;;7378270;19;20478;-52
2022/07/28 00:22:07;;;;;;;2.90;1.57;;;20.40;58.60;;;;;;7384555;19;20392;-51
2022/07/28 00:24:37;;;;;;;2.37;1.50;;;20.60;58.10;;;;;;7375869;19;20373;-52
2022/07/28 00:27:08;;;;;;;2.90;1.30;;;20.70;57.80;;;;;;7379909;19;20380;-51
2022/07/28 00:29:37;;;;;;;3.10;1.70;;;20.80;57.10;;;;;;7380354;19;20417;-51
2022/07/28 00:32:07;;;;;;;2.77;1.40;;;20.80;57.20;;;;;;7381756;19;20901;-51
2022/07/28 00:34:40;;;;;;;3.07;1.70;;;20.50;57.90;;;;;;7373341;19;20445;-51
2022/07/28 00:37:09;;;;;;;2.30;1.87;;;19.90;60.00;;;;;;7382507;19;20387;-51
2022/07/28 00:39:38;;;;;;;3.77;2.00;;;20.00;59.80;;;;;;7378173;19;20431;-47
2022/07/28 00:42:08;;;;;;;3.97;1.73;;;19.80;60.20;;;;;;7379913;19;20921;-47
2022/07/28 00:44:40;;;;;;;2.10;1.70;;;19.80;60.30;;;;;;7376896;19;20384;-48
2022/07/28 00:47:10;;;;;;;2.30;1.27;;;19.70;60.90;;;;;;7377142;19;20376;-47
2022/07/28 00:53:23;;;;;;;3.00;1.60;;;20.10;59.20;;;;;;7381748;19;20374;-47
2022/07/28 00:55:53;;;;;;;2.23;1.57;;;19.80;60.20;;;;;;7372313;19;20933;-47
2022/07/28 01:01:52;;;;;;;5.10;2.00;;;19.90;59.70;;;;;;7374250;19;20418;-47
2022/07/28 01:04:26;;;;;;;2.50;1.50;;;19.60;61.60;;;;;;7378874;19;20751;-47
2022/07/28 01:07:09;;;;;;;2.47;1.80;;;19.40;61.40;;;;;;7377822;19;20931;-47
2022/07/28 01:09:51;;;;;;;2.47;1.30;;;19.60;60.90;;;;;;7378710;19;20364;-47
2022/07/28 01:12:35;;;;;;;2.20;1.60;;;19.20;62.20;;;;;;7376529;19;20391;-47
2022/07/28 01:15:12;;;;;;;6.10;1.63;;;18.80;64.30;;;;;;7378362;19;20372;-47
2022/07/28 01:17:49;;;;;;;3.80;1.77;;;19.00;63.40;;;;;;7376072;19;21084;-47
2022/07/28 01:20:24;;;;;;;2.30;1.90;;;19.00;63.70;;;;;;7378449;19;20383;-47
2022/07/28 01:23:14;;;;;;;3.13;1.87;;;19.00;63.50;;;;;;7380933;19;20379;-47
2022/07/28 01:25:59;;;;;;;2.60;1.80;;;19.10;63.40;;;;;;7380381;19;20380;-47
2022/07/28 01:28:50;;;;;;;4.00;1.67;;;19.10;63.20;;;;;;7379066;19;20394;-47
2022/07/28 01:31:27;;;;;;;1.80;1.70;;;19.00;63.90;;;;;;7381957;19;20376;-47
2022/07/28 01:33:59;;;;;;;3.60;1.80;;;19.10;63.70;;;;;;7378613;19;20383;-47
2022/07/28 01:36:34;;;;;;;5.03;1.70;;;19.10;63.30;;;;;;7381664;19;20472;-47
2022/07/28 01:39:04;;;;;;;3.20;1.67;;;18.80;64.60;;;;;;7380791;19;20752;-47
2022/07/28 01:41:36;;;;;;;4.00;1.40;;;18.70;65.10;;;;;;7376129;19;20376;-47
2022/07/28 01:44:09;;;;;;;4.20;1.97;;;18.60;65.50;;;;;;7381050;19;20732;-47
2022/07/28 01:46:43;;;;;;;4.47;1.60;;;18.30;67.30;;;;;;7378873;19;20420;-47
2022/07/28 01:49:13;;;;;;;4.60;1.70;;;18.70;65.80;;;;;;7380130;19;20511;-47
2022/07/28 01:51:44;;;;;;;2.23;1.70;;;18.60;66.10;;;;;;7379493;19;20413;-47
2022/07/28 01:54:15;;;;;;;2.00;1.80;;;18.70;65.10;;;;;;7380024;19;20392;-47
2022/07/28 01:56:45;;;;;;;4.40;1.77;;;18.70;65.40;;;;;;7379164;19;20371;-47
2022/07/28 01:59:16;;;;;;;3.30;1.50;;;18.40;67.30;;;;;;7379405;19;20376;-47
2022/07/28 02:01:50;;;;;;;2.33;1.80;;;18.70;66.30;;;;;;7377644;19;20368;-47
2022/07/28 02:04:23;;;;;;;8.23;2.40;;;18.80;65.10;;;;;;7381363;19;20375;-47
2022/07/28 02:06:54;;;;;;;3.73;1.83;;;18.80;65.00;;;;;;7379121;19;20376;-47
2022/07/28 02:09:25;;;;;;;2.50;1.80;;;18.90;64.80;;;;;;7376873;19;20951;-47
2022/07/28 02:11:56;;;;;;;3.07;1.60;;;19.00;64.30;;;;;;7374017;19;20401;-47
2022/07/28 02:14:28;;;;;;;2.00;1.70;;;18.90;64.30;;;;;;7380855;19;20379;-47
2022/07/28 02:17:06;;;;;;;4.50;2.23;;;18.30;67.10;;;;;;7370523;19;20372;-47
2022/07/28 02:19:38;;;;;;;4.00;2.53;;;18.10;68.40;;;;;;7375304;19;20375;-50
2022/07/28 02:22:09;;;;;;;2.03;1.83;;;18.10;68.10;;;;;;7377639;19;20409;-50
2022/07/28 02:24:42;;;;;;;6.67;1.80;;;18.20;68.50;;;;;;7375087;19;20396;-51
2022/07/28 02:27:18;;;;;;;2.70;1.80;;;18.40;67.40;;;;;;7377624;19;20380;-51
2022/07/28 02:29:52;;;;;;;2.23;2.03;;;18.20;68.10;;;;;;7376457;19;20385;-50
2022/07/28 02:32:30;;;;;;;2.07;1.87;;;18.20;68.60;;;;;;7374742;19;20368;-50
2022/07/28 02:35:04;;;;;;;3.80;1.77;;;18.10;68.60;;;;;;7378845;19;20383;-51
2022/07/28 02:37:38;;;;;;;3.40;1.80;;;18.10;68.70;;;;;;7376360;19;20384;-50
2022/07/28 02:40:13;;;;;;;2.50;1.80;;;18.00;69.30;;;;;;7375189;19;20379;-50
2022/07/28 02:42:46;;;;;;;4.53;1.90;;;18.00;69.90;;;;;;7374933;19;20372;-50
2022/07/28 02:45:17;;;;;;;2.90;1.97;;;18.00;70.00;;;;;;7375659;19;20420;-50
2022/07/28 02:47:54;;;;;;;3.00;2.30;;;18.10;69.10;;;;;;7376312;19;20376;-49
2022/07/28 02:50:27;;;;;;;4.10;2.10;;;17.90;70.10;;;;;;7388263;19;20417;-47
2022/07/28 02:53:03;;;;;;;2.53;1.80;;;17.90;70.60;;;;;;7383652;19;20422;-46
2022/07/28 02:55:33;;;;;;;2.50;1.97;;;18.00;70.40;;;;;;7387715;19;20408;-47
2022/07/28 02:58:06;;;;;;;6.43;1.90;;;18.00;69.80;;;;;;7385457;19;20365;-47
2022/07/28 03:00:37;;;;;;;4.63;2.53;;;18.20;69.50;;;;;;7381017;19;20964;-46
2022/07/28 03:03:13;;;;;;;2.50;1.70;;;18.20;69.10;;;;;;7380640;19;20392;-47
2022/07/28 03:05:43;;;;;;;4.80;2.03;;;17.90;70.10;;;;;;7385333;19;20957;-46
2022/07/28 03:08:13;;;;;;;2.00;1.63;;;18.00;70.60;;;;;;7381177;19;20392;-47
2022/07/28 03:10:43;;;;;;;2.90;2.00;;;17.90;70.70;;;;;;7381636;19;20376;-47
2022/07/28 03:13:13;;;;;;;3.63;2.33;;;17.70;72.00;;;;;;7381654;19;20752;-47
2022/07/28 03:15:42;;;;;;;3.60;2.27;;;17.90;71.30;;;;;;7373651;19;21027;-47
2022/07/28 03:18:14;;;;;;;2.47;1.90;;;17.70;72.50;;;;;;7379987;19;20409;-47
2022/07/28 03:20:43;;;;;;;3.33;2.50;;;17.90;71.40;;;;;;7388698;19;20392;-47
2022/07/28 03:23:13;;;;;;;3.37;2.10;;;18.00;71.00;;;;;;7383811;19;21025;-47
2022/07/28 03:25:48;;;;;;;3.03;1.80;;;18.20;69.90;;;;;;7387144;19;20476;-46
2022/07/28 03:28:21;;;;;;;3.83;2.87;;;18.20;70.20;;;;;;7381351;19;21001;-47
2022/07/28 03:30:55;;;;;;;3.10;2.10;;;18.30;69.20;;;;;;7378646;19;20415;-47
2022/07/28 03:33:28;;;;;;;2.30;1.93;;;18.10;69.70;;;;;;7381478;19;20386;-47
2022/07/28 03:36:01;;;;;;;4.50;2.20;;;18.10;70.40;;;;;;7380778;19;20384;-46
2022/07/28 03:38:38;;;;;;;7.00;1.93;;;17.90;71.60;;;;;;7382381;19;20728;-46
2022/07/28 03:41:11;;;;;;;5.90;2.10;;;17.70;72.50;;;;;;7385631;19;20401;-47
2022/07/28 03:43:41;;;;;;;2.77;2.40;;;17.90;72.00;;;;;;7384335;19;20376;-47
2022/07/28 03:46:11;;;;;;;4.40;2.30;;;17.90;71.60;;;;;;7380001;19;20734;-46
2022/07/28 03:48:43;;;;;;;2.10;1.87;;;17.70;72.50;;;;;;7383815;19;21026;-47
2022/07/28 03:51:13;;;;;;;5.33;2.33;;;17.80;72.70;;;;;;7388300;19;20368;-47
2022/07/28 03:53:43;;;;;;;2.47;1.90;;;17.70;72.40;;;;;;7372781;19;20839;-47
2022/07/28 03:56:12;;;;;;;4.50;2.23;;;17.90;72.20;;;;;;7385320;19;20421;-47
2022/07/28 03:58:42;;;;;;;3.50;2.10;;;18.10;72.30;;;;;;7384487;19;20380;-47
2022/07/28 04:01:11;;;;;;;2.60;1.83;;;18.10;71.10;;;;;;7378116;19;20432;-46
2022/07/28 04:03:43;;;;;;;2.63;2.10;;;17.90;71.50;;;;;;7371836;19;20459;-47
2022/07/28 04:06:13;;;;;;;3.13;2.10;;;17.70;73.00;;;;;;7383620;19;20375;-46
2022/07/28 04:08:43;;;;;;;3.50;2.00;;;17.90;72.30;;;;;;7384207;19;20380;-47
2022/07/28 04:11:13;;;;;;;7.30;2.20;;;17.80;72.80;;;;;;7381383;19;20886;-46
2022/07/28 04:13:43;;;;;;;3.53;2.03;;;17.90;72.50;;;;;;7381536;19;20413;-47
2022/07/28 04:16:12;;;;;;;4.27;2.10;;;18.00;71.80;;;;;;7377179;19;20431;-46
2022/07/28 04:18:44;;;;;;;3.30;2.67;;;18.20;70.80;;;;;;7381511;19;20901;-47
2022/07/28 04:21:14;;;;;;;3.73;1.93;;;18.30;70.10;;;;;;7379624;19;20373;-47
2022/07/28 04:23:43;;;;;;;3.20;2.20;;;18.20;70.90;;;;;;7375404;19;20774;-47
2022/07/28 04:26:13;;;;;;;5.30;2.30;;;18.20;70.40;;;;;;7383047;19;20566;-47
2022/07/28 04:28:45;;;;;;;3.00;2.40;;;18.20;70.80;;;;;;7380791;19;20379;-47
2022/07/28 04:31:15;;;;;;;4.03;2.17;;;18.30;70.30;;;;;;7380209;19;20901;-54
2022/07/28 04:33:49;;;;;;;5.33;2.13;;;18.50;68.90;;;;;;7382904;19;21414;-55
2022/07/28 04:36:19;;;;;;;7.03;2.23;;;18.50;68.60;;;;;;7383247;19;20872;-53
2022/07/28 04:38:49;;;;;;;3.10;2.27;;;18.50;69.70;;;;;;7387775;19;20368;-54
2022/07/28 04:41:18;;;;;;;4.43;2.30;;;18.30;70.10;;;;;;7380506;19;20380;-54
2022/07/28 04:43:47;;;;;;;6.47;2.50;;;18.30;70.90;;;;;;7380980;19;20386;-54
2022/07/28 04:46:19;;;;;;;2.67;2.13;;;18.30;70.70;;;;;;7372520;19;20380;-54
2022/07/28 04:48:51;;;;;;;3.43;2.40;;;18.30;70.80;;;;;;7376589;19;20810;-54
2022/07/28 04:51:21;;;;;;;5.40;2.47;;;18.40;70.50;;;;;;7381118;19;20475;-53
2022/07/28 04:53:52;;;;;;;2.80;2.33;;;18.40;70.70;;;;;;7378068;19;20471;-55
2022/07/28 04:56:21;;;;;;;2.73;1.90;;;18.50;70.60;;;;;;7370182;19;20969;-55
2022/07/28 04:58:51;;;;;;;4.03;2.23;;;18.60;70.10;;;;;;7380075;19;20384;-54
2022/07/28 05:01:20;;;;;;;3.10;2.80;;;18.70;69.60;;;;;;7374600;19;20446;-47
2022/07/28 05:03:52;;;;;;;5.43;2.50;;;18.70;69.60;;;;;;7368729;19;20413;-47
2022/07/28 05:06:21;;;;;;;6.00;2.03;;;18.70;69.00;;;;;;7374010;19;20401;-47
2022/07/28 05:08:53;;;;;;;2.43;2.20;;;18.90;68.90;;;;;;7378980;19;20373;-47
2022/07/28 05:11:22;;;;;;;2.27;1.73;;;19.10;68.20;;;;;;7382697;19;20380;-47
2022/07/28 05:13:52;;;;;;;3.90;2.03;;;19.20;67.80;;;;;;7371641;19;20453;-47
2022/07/28 05:16:21;;;;;;;3.50;2.00;;;19.30;67.10;;;;;;7375658;19;20392;-47
2022/07/28 05:18:53;;;;;;;7.53;2.27;;;19.40;65.50;;;;;;7379471;19;20765;-47
2022/07/28 05:21:25;;;;;;;3.03;2.20;;;19.60;64.90;;;;;;7378252;19;20412;-48
2022/07/28 05:23:55;;;;;;;4.87;2.70;;;19.70;64.10;;;;;;7373939;19;20385;-47
2022/07/28 05:26:25;;;;;;;4.43;2.20;;;19.80;63.20;;;;;;7380037;19;20372;-48
2022/07/28 05:28:55;;;;;;;2.87;2.43;;;20.00;62.50;;;;;;7381149;19;20748;-47
2022/07/28 05:31:24;;;;;;;4.47;2.93;;;20.10;62.20;;;;;;7372788;19;20935;-56
2022/07/28 05:33:56;;;;;;;3.67;2.37;;;20.20;61.20;;;;;;7374832;19;21118;-56
2022/07/28 05:36:26;;;;;;;3.80;3.20;;;20.20;60.60;;;;;;7384317;19;20388;-55
2022/07/28 05:38:55;;;;;;;9.83;2.70;;;20.30;60.10;;;;;;7373343;19;20408;-55
2022/07/28 05:41:24;;;;;;;8.10;3.50;;;20.40;59.90;;;;;;7375762;19;21199;-55
2022/07/28 05:43:54;;;;;;;5.17;3.90;;;20.50;59.90;;;;;;7371379;19;21302;-56
2022/07/28 05:46:23;;;;;;;4.70;4.20;;;20.60;59.90;;;;;;7373974;19;20507;-55
2022/07/28 05:48:58;;;;;;;5.97;2.87;;;20.70;59.30;;;;;;7367496;19;20398;-54
2022/07/28 05:51:31;;;;;;;9.23;4.20;;;20.70;59.20;;;;;;7379527;19;20372;-55
2022/07/28 05:54:00;;;;;;;5.87;3.10;;;20.90;59.30;;;;;;7384535;19;20895;-56
2022/07/28 05:56:30;;;;;;;5.60;2.70;;;21.00;59.10;;;;;;7383076;19;20403;-55
2022/07/28 05:58:59;;;;;;;5.87;2.93;;;21.00;59.10;;;;;;7383019;19;20713;-56
2022/07/28 06:01:29;;;;;;;4.23;2.80;;;21.00;58.80;;;;;;7379965;19;20425;-54
2022/07/28 06:04:01;;;;;;;4.33;3.53;;;21.10;58.80;;;;;;7382265;19;20408;-54
2022/07/28 06:06:30;;;;;;;5.37;3.10;;;21.20;58.70;;;;;;7379746;19;20991;-54
2022/07/28 06:09:00;;;;;;;6.27;3.53;;;21.30;58.50;;;;;;7380835;19;21041;-55
2022/07/28 06:11:29;;;;;;;3.50;2.93;;;21.30;58.30;;;;;;7381497;19;20417;-47
2022/07/28 06:14:01;;;;;;;4.70;2.87;;;21.40;58.30;;;;;;7384570;19;20391;-48
2022/07/28 06:16:31;;;;;;;3.40;3.10;;;21.60;58.20;;;;;;7379658;19;21039;-48
2022/07/28 06:19:03;;;;;;;4.10;3.10;;;21.70;58.20;;;;;;7383428;19;20368;-48
2022/07/28 06:21:32;;;;;;;3.83;2.97;;;21.70;57.80;;;;;;7379054;19;20455;-48
2022/07/28 06:24:02;;;;;;;3.73;2.90;;;21.70;58.50;;;;;;7381019;19;20404;-48
2022/07/28 06:26:35;;;;;;;5.00;3.03;;;21.80;58.00;;;;;;7375694;19;20391;-48
2022/07/28 06:29:04;;;;;;;4.17;3.30;;;21.90;57.80;;;;;;7381515;19;20423;-48
2022/07/28 06:31:34;;;;;;;4.70;3.37;;;22.00;57.80;;;;;;7378548;19;21013;-48
2022/07/28 06:34:09;;;;;;;5.67;3.50;;;22.10;57.60;;;;;;7386815;19;20400;-48
2022/07/28 06:36:38;;;;;;;4.10;3.10;;;22.30;57.50;;;;;;7377433;19;20921;-48
2022/07/28 06:39:07;;;;;;;4.70;3.40;;;22.30;57.10;;;;;;7386304;19;20451;-48
2022/07/28 06:41:40;;;;;;;6.90;3.40;;;22.40;57.00;;;;;;7385595;19;20443;-55
2022/07/28 06:44:10;;;;;;;3.60;3.20;;;22.60;57.10;;;;;;7378943;19;20868;-55
2022/07/28 06:46:40;;;;;;;5.33;3.20;;;22.70;56.90;;;;;;7381970;19;20467;-55
2022/07/28 06:49:12;;;;;;;5.00;3.20;;;22.80;56.50;;;;;;7381060;19;20383;-56
2022/07/28 06:51:41;;;;;;;5.87;3.50;;;22.90;56.50;;;;;;7386991;19;20511;-55
2022/07/28 06:54:11;;;;;;;4.90;3.80;;;23.00;56.40;;;;;;7384268;19;20371;-55
2022/07/28 06:56:40;;;;;;;5.57;3.80;;;23.10;56.30;;;;;;7377747;19;20371;-55
2022/07/28 06:59:10;;;;;;;3.93;3.33;;;23.20;56.20;;;;;;7383138;19;20413;-55
2022/07/28 07:01:39;;;;;;;6.27;3.87;;;23.30;56.40;;;;;;7379848;19;20427;-55
2022/07/28 07:04:11;;;;;;;4.83;3.50;;;23.30;56.70;;;;;;7387411;19;20388;-55
2022/07/28 07:06:41;;;;;;;4.80;3.97;;;23.30;56.70;;;;;;7379186;19;20735;-56
2022/07/28 07:09:13;;;;;;;5.83;4.00;;;23.30;56.60;;;;;;7379929;19;20405;-49
2022/07/28 07:11:42;;;;;;;4.80;3.87;;;23.40;56.30;;;;;;7383691;19;20981;-48
2022/07/28 07:14:12;;;;;;;9.33;4.23;;;23.60;56.20;;;;;;7383437;19;20408;-49
2022/07/28 07:16:41;;;;;;;6.40;3.73;;;23.70;56.20;;;;;;7382041;19;20405;-49
2022/07/28 07:19:13;;;;;;;4.90;4.10;;;23.80;56.10;;;;;;7384022;19;20396;-48
2022/07/28 07:21:43;;;;;;;9.00;4.73;;;23.80;56.30;;;;;;7383960;19;20728;-49
2022/07/28 07:24:12;;;;;;;4.87;3.67;;;23.90;56.00;;;;;;7384061;19;20379;-49
2022/07/28 07:26:42;;;;;;;4.87;3.90;;;24.10;55.80;;;;;;7375702;19;20396;-49
2022/07/28 07:29:11;;;;;;;5.90;4.23;;;24.30;55.40;;;;;;7373180;19;20372;-49
2022/07/28 07:31:42;;;;;;;9.20;4.63;;;24.20;55.40;;;;;;7377239;19;20941;-49
2022/07/28 07:34:14;;;;;;;4.57;4.17;;;24.30;55.80;;;;;;7384797;19;20376;-49
2022/07/28 07:36:44;;;;;;;4.47;3.97;;;24.40;55.90;;;;;;7381351;19;20372;-49
2022/07/28 07:39:14;;;;;;;5.13;3.93;;;24.50;55.80;;;;;;7381928;19;20372;-56
2022/07/28 07:41:43;;;;;;;5.43;4.80;;;24.60;55.40;;;;;;7379729;19;20372;-56
2022/07/28 07:44:13;;;;;;;7.03;4.87;;;24.70;55.40;;;;;;7384682;19;20916;-56
2022/07/28 07:46:45;;;;;;;5.03;4.53;;;24.80;55.00;;;;;;7374905;19;20367;-56
2022/07/28 07:49:17;;;;;;;5.70;4.60;;;24.80;54.90;;;;;;7383933;19;20884;-55
2022/07/28 07:51:47;;;;;;;5.47;4.77;;;24.80;55.00;;;;;;7388085;19;20409;-53
2022/07/28 07:54:20;;;;;;;5.33;4.60;;;24.90;55.10;;;;;;7385480;19;20921;-56
2022/07/28 07:56:50;;;;;;;8.03;4.43;;;25.00;54.90;;;;;;7384580;19;20376;-56
2022/07/28 07:59:19;;;;;;;8.87;4.87;;;25.20;54.50;;;;;;7386272;19;20921;-56
2022/07/28 08:01:53;;;;;;;6.13;4.67;;;25.40;54.10;;;;;;7388519;19;20375;-56
2022/07/28 08:04:26;;;;;;;6.77;4.97;;;25.50;54.20;;;;;;7386929;19;20402;-56
2022/07/28 08:06:55;;;;;;;5.30;4.50;;;25.70;53.50;;;;;;7377631;19;21006;-56
2022/07/28 08:09:25;;;;;;;5.40;4.67;;;25.90;53.20;;;;;;7381698;19;21001;-56
2022/07/28 08:11:56;;;;;;;6.40;5.50;;;25.90;53.20;;;;;;7386625;19;21055;-56
2022/07/28 08:14:28;;;;;;;4.80;4.33;;;26.00;53.20;;;;;;7387957;19;20388;-54
2022/07/28 08:17:01;;;;;;;7.60;5.20;;;26.10;53.10;;;;;;7380046;19;20467;-57
2022/07/28 08:19:33;;;;;;;6.50;4.90;;;26.20;52.80;;;;;;7383787;19;20379;-56
2022/07/28 08:22:03;;;;;;;5.87;5.10;;;26.20;52.70;;;;;;7374164;19;20380;-57
2022/07/28 08:24:32;;;;;;;5.40;4.90;;;26.20;52.90;;;;;;7381378;19;20376;-57
2022/07/28 08:27:05;;;;;;;7.73;4.40;;;26.20;52.90;;;;;;7376699;19;20379;-56
2022/07/28 08:29:37;;;;;;;6.00;4.27;;;26.50;52.60;;;;;;7386308;19;20488;-56
2022/07/28 08:32:07;;;;;;;6.00;3.97;;;26.40;52.80;;;;;;7382552;19;20479;-56
2022/07/28 08:34:41;;;;;;;5.13;4.63;;;26.70;52.50;;;;;;7382927;19;20776;-56
2022/07/28 08:37:11;;;;;;;5.00;3.87;;;27.00;52.00;;;;;;7383692;19;20372;-56
2022/07/28 08:39:40;;;;;;;6.50;4.43;;;27.30;51.60;;;;;;7371103;19;21078;-49
2022/07/28 08:42:14;;;;;;;6.13;4.40;;;27.60;50.90;;;;;;7378113;19;20384;-49
2022/07/28 08:44:53;;;;;;;5.37;4.87;;;27.80;50.70;;;;;;7385795;19;20933;-49
2022/07/28 08:47:23;;;;;;;4.87;4.37;;;27.90;50.60;;;;;;7379113;19;20920;-49
2022/07/28 08:49:58;;;;;;;5.53;4.50;;;28.10;50.40;;;;;;7381914;19;20746;-49
2022/07/28 08:52:31;;;;;;;5.80;5.10;;;28.40;49.70;;;;;;7380716;19;20415;-49
2022/07/28 08:55:05;;;;;;;5.03;3.90;;;28.50;49.10;;;;;;7383915;19;20721;-49
2022/07/28 08:57:38;;;;;;;6.83;4.70;;;28.70;48.90;;;;;;7378750;19;20383;-49
2022/07/28 09:00:11;;;;;;;6.83;4.53;;;28.90;48.80;;;;;;7381799;19;20438;-49
2022/07/28 09:02:44;;;;;;;6.40;4.57;;;29.20;48.50;;;;;;7384244;19;21450;-49
2022/07/28 09:05:20;;;;;;;4.33;4.00;;;29.30;48.00;;;;;;7384671;19;21299;-49
2022/07/28 09:07:51;;;;;;;6.13;4.47;;;29.60;47.60;;;;;;7385973;19;20380;-47
2022/07/28 09:10:21;;;;;;;4.90;4.37;;;29.90;47.20;;;;;;7379091;19;20372;-56
2022/07/28 09:12:54;;;;;;;4.20;3.80;;;30.20;47.00;;;;;;7377916;19;20372;-55
2022/07/28 09:15:24;;;;;;;6.63;4.20;;;30.60;45.90;;;;;;7380077;19;20914;-55
2022/07/28 09:17:55;;;;;;;5.17;4.33;;;30.80;45.50;;;;;;7372962;19;20406;-55
2022/07/28 09:20:29;;;;;;;4.87;4.37;;;31.20;45.10;;;;;;7378239;19;20368;-56
2022/07/28 09:23:01;;;;;;;5.17;4.67;;;31.30;44.50;;;;;;7373061;19;20905;-57
2022/07/28 09:25:31;;;;;;;5.67;4.70;;;31.10;44.70;;;;;;7382073;19;20372;-55
2022/07/28 09:28:09;;;;;;;5.43;4.33;;;31.00;45.20;;;;;;7376497;19;20398;-56
2022/07/28 09:30:42;;;;;;;4.93;4.13;;;31.20;45.00;;;;;;7374766;19;20913;-56
2022/07/28 09:33:16;;;;;;;5.10;3.77;;;31.50;44.40;;;;;;7365154;19;20386;-56
2022/07/28 09:35:53;;;;;;;5.23;4.10;;;32.00;43.60;;;;;;7376482;19;20455;-56
2022/07/28 09:38:28;;;;;;;5.50;4.63;;;32.30;42.70;;;;;;7374643;19;20931;-56
2022/07/28 09:40:59;;;;;;;6.53;4.70;;;32.50;43.40;;;;;;7379802;19;20392;-48
2022/07/28 09:43:36;;;;;;;4.70;4.30;;;32.90;42.40;;;;;;7376032;19;21409;-49
2022/07/28 09:46:08;;;;;;;5.10;4.70;;;33.40;41.80;;;;;;7369116;19;21325;-48
2022/07/28 09:48:50;;;;;;;4.07;3.67;;;33.60;41.20;;;;;;7368864;19;20393;-49
2022/07/28 09:51:25;;;;;;;4.97;4.37;;;34.10;40.50;;;;;;7361566;19;20370;-49
2022/07/28 09:54:07;;;;;;;6.00;4.17;;;34.40;39.50;;;;;;7373260;19;20387;-49
2022/07/28 09:56:37;;;;;;;11.63;4.60;;;34.70;39.40;;;;;;7372455;19;20364;-49
2022/07/28 09:59:07;;;;;;;5.53;4.17;;;35.10;38.40;;;;;;7370133;19;20380;-49
2022/07/28 10:01:52;;;;;;;3.77;3.47;;;35.50;38.20;;;;;;7381473;19;20419;-49
2022/07/28 10:04:34;;;;;;;5.40;4.20;;;36.10;37.50;;;;;;7380632;19;20384;-50
2022/07/28 10:07:12;;;;;;;3.80;3.40;;;36.80;36.20;;;;;;7380099;19;20503;-49
2022/07/28 10:09:42;;;;;;;4.53;3.77;;;37.20;35.30;;;;;;7376407;19;20388;-58
2022/07/28 10:12:21;;;;;;;3.57;3.27;;;36.90;35.40;;;;;;7377955;19;20762;-58
2022/07/28 10:14:58;;;;;;;4.40;3.60;;;37.40;34.90;;;;;;7378572;19;20389;-58
2022/07/28 10:17:30;;;;;;;5.00;4.07;;;37.20;34.90;;;;;;7375352;19;20742;-57
2022/07/28 10:20:07;;;;;;;4.97;4.20;;;37.00;34.90;;;;;;7377177;19;20387;-59
2022/07/28 10:22:44;;;;;;;3.97;3.67;;;36.40;35.80;;;;;;7371736;19;20372;-58
2022/07/28 10:25:17;;;;;;;5.30;4.80;;;36.60;36.00;;;;;;7367443;19;20382;-58
2022/07/28 10:27:49;;;;;;;4.80;4.40;;;36.40;35.80;;;;;;7365724;19;20968;-59
2022/07/28 10:30:19;;;;;;;4.60;4.23;;;36.30;36.10;;;;;;7373213;19;20387;-58
2022/07/28 10:32:48;;;;;;;6.00;4.47;;;36.60;35.80;;;;;;7370591;19;20724;-58
2022/07/28 10:35:19;;;;;;;4.53;4.13;;;36.90;35.50;;;;;;7377053;19;20445;-58
2022/07/28 10:37:56;;;;;;;4.40;4.00;;;37.70;33.80;;;;;;7373159;19;20373;-58
2022/07/28 10:40:33;;;;;;;8.27;6.40;;;37.30;34.60;;;;;;7375284;19;20850;-50
2022/07/28 10:43:02;;;;;;;4.40;4.00;;;37.30;34.90;;;;;;7377729;19;20398;-50
2022/07/28 10:45:33;;;;;;;4.60;4.20;;;37.80;34.10;;;;;;7373046;19;20376;-50
2022/07/28 10:48:07;;;;;;;5.63;5.00;;;38.10;33.70;;;;;;7375193;19;20435;-50
2022/07/28 10:50:38;;;;;;;4.40;4.00;;;39.30;32.40;;;;;;7375166;19;20379;-50
2022/07/28 10:53:13;;;;;;;5.40;5.00;;;40.90;30.50;;;;;;7378886;19;20380;-50
2022/07/28 10:55:50;;;;;;;3.97;3.53;;;42.50;29.00;;;;;;7375600;19;20388;-51
2022/07/28 10:58:26;;;;;;;4.40;4.00;;;44.00;27.80;;;;;;7364790;19;20981;-48
2022/07/28 11:00:57;;;;;;;3.67;3.37;;;44.40;27.10;;;;;;7357832;19;20451;-51
2022/07/28 11:03:45;;;;;;;4.03;3.10;;;43.80;27.30;;;;;;7373315;19;20392;-50
2022/07/28 11:06:28;;;;;;;4.07;3.60;;;43.00;28.00;;;;;;7366867;19;20934;-50
2022/07/28 11:09:02;;;;;;;5.03;3.83;;;41.90;28.90;;;;;;7374577;19;20447;-50
2022/07/28 11:11:48;;;;;;;5.20;4.70;;;41.40;29.30;;;;;;7382238;19;20951;-51
2022/07/28 11:14:32;;;;;;;3.67;3.37;;;41.40;29.40;;;;;;7379507;19;20416;-49
2022/07/28 11:17:21;;;;;;;5.23;3.97;;;41.30;29.40;;;;;;7382572;19;20395;-51
2022/07/28 11:19:59;;;;;;;3.50;3.20;;;41.10;29.60;;;;;;7387757;19;20407;-50
2022/07/28 11:22:32;;;;;;;3.87;3.53;;;40.40;29.40;;;;;;7374241;19;20376;-49
2022/07/28 11:25:20;;;;;;;4.20;3.90;;;40.10;29.90;;;;;;7373800;19;20392;-51
2022/07/28 11:28:17;;;;;;;4.20;3.80;;;41.10;29.00;;;;;;7370997;19;20412;-49
2022/07/28 11:30:57;;;;;;;3.47;3.27;;;41.90;28.00;;;;;;7381696;19;20388;-49
2022/07/28 11:33:28;;;;;;;7.07;3.40;;;41.90;27.70;;;;;;7381219;19;20379;-49
2022/07/28 11:35:59;;;;;;;3.90;3.50;;;41.30;27.90;;;;;;7388353;19;20383;-48
2022/07/28 11:38:30;;;;;;;3.43;3.13;;;40.70;28.70;;;;;;7386002;19;20419;-48
2022/07/28 11:41:28;;;;;;;5.00;3.63;;;39.40;29.70;;;;;;7389034;19;20424;-51
2022/07/28 11:44:00;;;;;;;6.07;4.10;;;38.00;31.50;;;;;;7387017;19;20896;-49
2022/07/28 11:46:30;;;;;;;5.30;3.57;;;37.20;32.30;;;;;;7384250;19;20921;-50
2022/07/28 11:49:22;;;;;;;3.80;3.50;;;37.70;31.40;;;;;;7390115;19;20435;-49
2022/07/28 11:52:24;;;;;;;6.20;3.63;;;38.50;30.70;;;;;;7387746;19;21196;-50
2022/07/28 11:54:58;;;;;;;5.40;3.63;;;40.10;29.10;;;;;;7386575;19;20421;-50
2022/07/28 11:57:39;;;;;;;5.23;3.87;;;41.50;28.20;;;;;;7386578;19;20381;-50
2022/07/28 12:00:11;;;;;;;3.60;3.07;;;42.20;27.50;;;;;;7386251;19;20444;-50
2022/07/28 12:02:42;;;;;;;3.87;3.00;;;43.10;27.00;;;;;;7387855;19;20400;-50
2022/07/28 12:05:16;;;;;;;3.43;3.10;;;43.50;26.10;;;;;;7388268;19;20380;-50
2022/07/28 12:07:50;;;;;;;3.80;2.97;;;43.00;26.60;;;;;;7383068;19;20379;-50
2022/07/28 12:10:31;;;;;;;4.30;3.30;;;41.70;26.90;;;;;;7387533;19;20405;-51
2022/07/28 12:13:07;;;;;;;4.63;3.50;;;41.40;27.40;;;;;;7382340;19;20376;-51
2022/07/28 12:15:37;;;;;;;3.90;3.33;;;41.00;27.70;;;;;;7386815;19;20451;-51
2022/07/28 12:18:06;;;;;;;4.67;4.27;;;41.10;27.70;;;;;;7388780;19;21337;-51
2022/07/28 12:20:36;;;;;;;4.00;3.10;;;40.90;28.00;;;;;;7388287;19;20417;-58
2022/07/28 12:23:10;;;;;;;4.00;3.60;;;41.30;27.70;;;;;;7386265;19;20741;-58
2022/07/28 12:25:42;;;;;;;5.33;2.90;;;42.20;26.80;;;;;;7386220;19;20448;-58
2022/07/28 12:28:19;;;;;;;4.10;3.70;;;41.30;26.60;;;;;;7385094;19;20396;-58
2022/07/28 12:30:50;;;;;;;3.43;3.13;;;39.90;28.10;;;;;;7386366;19;20878;-58
2022/07/28 12:33:25;;;;;;;4.80;3.40;;;39.30;28.80;;;;;;7387355;19;20997;-59
2022/07/28 12:36:00;;;;;;;3.20;2.90;;;38.90;28.80;;;;;;7388437;19;20407;-58
2022/07/28 12:38:34;;;;;;;3.47;3.17;;;38.60;28.90;;;;;;7384186;19;20423;-58
2022/07/28 12:41:04;;;;;;;3.40;2.80;;;38.70;29.00;;;;;;7386507;19;20379;-57
2022/07/28 12:43:36;;;;;;;5.97;3.30;;;38.80;28.10;;;;;;7383729;19;20455;-57
2022/07/28 12:46:07;;;;;;;3.17;2.87;;;38.30;28.90;;;;;;7387667;19;20380;-59
2022/07/28 12:48:42;;;;;;;5.80;3.37;;;38.00;29.40;;;;;;7380936;19;20760;-57
2022/07/28 12:51:31;;;;;;;3.20;2.90;;;37.00;30.60;;;;;;7385800;19;20401;-57
2022/07/28 12:54:04;;;;;;;4.10;3.63;;;36.20;31.00;;;;;;7384291;19;20421;-58
2022/07/28 12:56:47;;;;;;;4.37;3.23;;;35.80;32.30;;;;;;7383272;19;21094;-57
2022/07/28 12:59:20;;;;;;;3.57;3.27;;;35.70;32.10;;;;;;7384608;19;20379;-56
2022/07/28 13:01:51;;;;;;;5.30;3.60;;;35.60;32.50;;;;;;7385698;19;20418;-57
2022/07/28 13:04:39;;;;;;;3.73;3.43;;;35.50;32.20;;;;;;7386347;19;20376;-56
2022/07/28 13:07:11;;;;;;;3.93;3.53;;;34.60;33.20;;;;;;7384811;19;20421;-56
2022/07/28 13:09:49;;;;;;;4.53;3.30;;;34.30;33.80;;;;;;7385468;19;20929;-56
2022/07/28 13:12:20;;;;;;;5.80;3.97;;;34.50;33.60;;;;;;7381484;19;20379;-56
2022/07/28 13:14:55;;;;;;;3.37;3.00;;;34.80;33.60;;;;;;7387082;19;20384;-57
2022/07/28 13:17:25;;;;;;;3.50;3.20;;;35.10;33.20;;;;;;7360299;19;20433;-56
2022/07/28 13:20:06;;;;;;;4.90;3.60;;;35.20;33.20;;;;;;7380967;19;20391;-56
2022/07/28 13:22:35;;;;;;;4.23;3.80;;;34.70;33.70;;;;;;7386021;19;20376;-56
2022/07/28 13:25:05;;;;;;;5.10;3.83;;;34.10;34.00;;;;;;7384466;19;20830;-56